This is the latest recevied weather packets stored in our database for station/object R1ZAAG-14. If no packets are shown the sender has not sent any weather packets the latest 10 day(s).
| Time | Temp. | Humidity | Pressure | Rain* | Wind** | Luminosity | Snow |
|---|---|---|---|---|---|---|---|
| 1777749059 | 3.33° C | 65% | 996.1 hPa | - | - | - | - |
| 1777748163 | 5° C | 60% | 995.8 hPa | - | - | - | - |
| 1777748158 | 5° C | 60% | 995.8 hPa | - | - | - | - |
| 1777747262 | 5.56° C | 56% | 995 hPa | - | - | - | - |
| 1777747257 | 5.56° C | 56% | 995 hPa | - | - | - | - |
| 1777746362 | 6.11° C | 54% | 994.6 hPa | - | - | - | - |
| 1777746357 | 6.11° C | 54% | 994.6 hPa | - | - | - | - |
| 1777745461 | 8.33° C | 51% | 994.1 hPa | - | - | - | - |
| 1777745456 | 8.33° C | 51% | 994.1 hPa | - | - | - | - |
| 1777744560 | 7.78° C | 55% | 994.2 hPa | - | - | - | - |
| 1777744554 | 7.78° C | 55% | 994.2 hPa | - | - | - | - |
| 1777743662 | 10° C | 53% | 993.8 hPa | - | - | - | - |
| 1777743653 | 10° C | 53% | 993.8 hPa | - | - | - | - |
| 1777742759 | 11.11° C | 54% | 993.5 hPa | - | - | - | - |
| 1777742753 | 11.11° C | 54% | 993.5 hPa | - | - | - | - |
| 1777741860 | 11.11° C | 51% | 993.6 hPa | - | - | - | - |
| 1777741852 | 11.11° C | 51% | 993.6 hPa | - | - | - | - |
| 1777740951 | 11.11° C | 52% | 993.5 hPa | - | - | - | - |
| 1777740050 | 11.67° C | 54% | 993.5 hPa | - | - | - | - |
| 1777739166 | 10.56° C | 57% | 993.7 hPa | - | - | - | - |
| 1777738265 | 11.67° C | 59% | 993.8 hPa | - | - | - | - |
| 1777737364 | 5° C | 81% | 993.9 hPa | - | - | - | - |
| 1777736464 | 5° C | 86% | 994 hPa | - | - | - | - |
| 1777735564 | 4.44° C | 87% | 994.2 hPa | - | - | - | - |
| 1777734664 | 5° C | 84% | 994.2 hPa | - | - | - | - |
* Rain since midnight (hover to see other rain measurements)
** Current wind speed in m/s (hover to see current wind gust speed)